Time;durP1;ratioP1;P1;durP2;ratioP2;P2;SDS_P1;SDS_P2;PMS_P1;PMS_P2;Temp;Humidity;BMP_temperature;BMP_pressure;BME280_temperature;BME280_humidity;BME280_pressure;Samples;Min_cycle;Max_cycle;Signal;HPM_P1;HPM_P2
2022/06/13 00:01:31;;;;;;;17.87;7.40;;;;;;;36.33;44.10;101141.56;5054204;28;20414;-73
2022/06/13 00:03:59;;;;;;;12.63;5.67;;;;;;;36.64;43.42;101139.31;5055891;28;20543;-76
2022/06/13 00:06:25;;;;;;;11.50;5.47;;;;;;;36.61;43.77;101136.41;5054040;28;20407;-76
2022/06/13 00:08:51;;;;;;;25.77;9.03;;;;;;;36.57;43.49;101134.28;5053904;28;20446;-74
2022/06/13 00:11:20;;;;;;;9.77;6.30;;;;;;;36.62;44.08;101138.03;5053859;28;20464;-74
2022/06/13 00:13:50;;;;;;;12.20;7.83;;;;;;;36.69;43.59;101130.34;5054062;28;20903;-75
2022/06/13 00:16:16;;;;;;;10.27;5.70;;;;;;;36.63;43.86;101134.22;5053670;28;20516;-75
2022/06/13 00:18:48;;;;;;;12.47;7.23;;;;;;;36.66;44.07;101137.16;5053828;28;20438;-75
2022/06/13 00:21:20;;;;;;;18.47;8.83;;;;;;;36.58;43.97;101135.88;5055250;28;20394;-75
2022/06/13 00:23:47;;;;;;;10.37;7.40;;;;;;;36.36;44.59;101132.09;5053690;28;20553;-74
2022/06/13 00:26:13;;;;;;;19.07;8.13;;;;;;;36.48;44.34;101127.94;5055143;28;20398;-74
2022/06/13 00:28:39;;;;;;;16.53;7.90;;;;;;;36.35;44.68;101128.59;5053688;28;20888;-76
2022/06/13 00:31:05;;;;;;;17.20;7.07;;;;;;;36.15;44.92;101121.53;5053081;28;20414;-76
2022/06/13 00:33:31;;;;;;;14.93;7.73;;;;;;;36.08;45.37;101122.97;5053337;28;20409;-75
2022/06/13 00:35:57;;;;;;;14.30;7.30;;;;;;;36.32;44.63;101121.88;5055231;28;20932;-74
2022/06/13 00:38:23;;;;;;;16.53;8.70;;;;;;;36.31;44.92;101114.84;5053228;28;20415;-74
2022/06/13 00:40:49;;;;;;;15.87;9.57;;;;;;;36.46;44.41;101116.63;5053747;28;20787;-76
2022/06/13 00:43:17;;;;;;;14.97;8.33;;;;;;;36.51;44.58;101110.31;5053205;28;21024;-77
2022/06/13 00:45:43;;;;;;;21.40;9.43;;;;;;;36.45;44.59;101112.28;5053369;28;20973;-76
2022/06/13 00:48:13;;;;;;;16.40;9.43;;;;;;;36.39;44.49;101108.03;5053305;28;20805;-76
2022/06/13 00:50:49;;;;;;;14.73;9.40;;;;;;;36.56;44.28;101097.53;5053146;28;20410;-76
2022/06/13 00:53:23;;;;;;;17.43;7.97;;;;;;;36.55;44.53;101109.44;5053106;28;20446;-74
2022/06/13 00:56:11;;;;;;;10.10;6.60;;;;;;;36.52;44.38;101101.13;5054643;28;20452;-74
2022/06/13 00:58:46;;;;;;;13.80;7.30;;;;;;;36.69;43.70;101095.22;5052941;28;20414;-75
2022/06/13 01:01:13;;;;;;;15.60;10.70;;;;;;;36.52;44.06;101096.53;5052970;28;20421;-75
2022/06/13 01:03:43;;;;;;;10.97;7.40;;;;;;;36.52;44.03;101091.13;5052783;28;20841;-75
2022/06/13 01:06:10;;;;;;;16.23;8.30;;;;;;;36.53;44.47;101091.94;5052984;28;20472;-74
2022/06/13 01:08:38;;;;;;;10.30;6.27;;;;;;;36.63;43.65;101090.97;5052960;28;20427;-74
2022/06/13 01:11:18;;;;;;;15.40;6.87;;;;;;;36.58;43.78;101086.44;5052731;28;20419;-76
2022/06/13 01:14:31;;;;;;;14.53;7.73;;;;;;;36.66;43.35;101083.09;5052813;28;20418;-76
2022/06/13 01:17:00;;;;;;;10.77;6.23;;;;;;;36.49;43.62;101096.31;5052732;28;20941;-76
2022/06/13 01:19:51;;;;;;;12.30;7.00;;;;;;;36.59;43.16;101086.16;5052639;28;20472;-74
2022/06/13 01:22:38;;;;;;;12.43;7.43;;;;;;;36.73;43.53;101088.13;5052439;28;20443;-74
2022/06/13 01:25:22;;;;;;;11.97;6.80;;;;;;;36.64;43.40;101084.47;5052484;28;20456;-74
2022/06/13 01:28:16;;;;;;;13.03;6.67;;;;;;;36.74;43.12;101068.13;5052498;28;20422;-74
2022/06/13 01:31:08;;;;;;;13.43;7.40;;;;;;;36.54;42.86;101070.03;5035585;28;20431;-74
2022/06/13 01:33:40;;;;;;;16.97;6.67;;;;;;;36.40;43.39;101063.75;5053855;28;20919;-74
2022/06/13 01:36:38;;;;;;;17.57;6.53;;;;;;;36.42;42.83;101060.75;5052625;28;20555;-74
2022/06/13 01:39:22;;;;;;;9.27;4.90;;;;;;;36.75;41.88;101065.13;5052566;28;20426;-76
2022/06/13 01:42:02;;;;;;;11.83;5.50;;;;;;;36.64;42.36;101046.63;5053893;28;20948;-76
2022/06/13 01:44:35;;;;;;;12.87;6.50;;;;;;;36.70;42.64;101046.25;5051241;28;20489;-76
2022/06/13 01:47:06;;;;;;;18.10;7.60;;;;;;;36.84;42.75;101049.84;5052084;28;20473;-76
2022/06/13 01:49:46;;;;;;;13.40;7.60;;;;;;;36.75;43.06;101061.63;5052010;28;20419;-76
2022/06/13 01:52:29;;;;;;;14.70;6.70;;;;;;;36.51;43.20;101056.28;5052043;28;20461;-74
2022/06/13 01:55:04;;;;;;;17.40;8.10;;;;;;;36.44;43.35;101051.22;5052075;28;20489;-74
2022/06/13 01:57:35;;;;;;;11.50;7.80;;;;;;;36.30;44.04;101058.44;5051940;28;20452;-74
2022/06/13 02:00:16;;;;;;;12.87;8.20;;;;;;;36.39;43.74;101066.69;5051903;28;20422;-74
2022/06/13 02:02:42;;;;;;;20.53;8.33;;;;;;;36.29;44.00;101065.72;5053129;28;20462;-76
2022/06/13 02:05:08;;;;;;;11.40;6.07;;;;;;;36.14;44.54;101057.81;5052354;28;20457;-76
2022/06/13 02:07:41;;;;;;;13.67;6.67;;;;;;;36.22;44.44;101051.78;5051766;28;20799;-76
2022/06/13 02:10:13;;;;;;;11.50;7.27;;;;;;;36.06;44.76;101053.84;5053086;28;20449;-76
2022/06/13 02:12:42;;;;;;;14.13;8.33;;;;;;;35.97;44.52;101039.41;5051720;28;20424;-74
2022/06/13 02:15:20;;;;;;;15.37;8.20;;;;;;;35.84;45.06;101044.63;5051271;28;20513;-74
2022/06/13 02:17:52;;;;;;;10.80;8.60;;;;;;;35.94;44.52;101039.97;5051542;28;20438;-74
2022/06/13 02:20:23;;;;;;;13.90;8.13;;;;;;;35.63;45.43;101034.06;5051498;28;20415;-76
2022/06/13 02:22:56;;;;;;;18.90;7.13;;;;;;;35.74;45.31;101029.38;5051444;28;20454;-76
2022/06/13 02:25:45;;;;;;;19.50;8.87;;;;;;;35.52;46.00;101038.75;5051370;28;20422;-74
2022/06/13 02:28:30;;;;;;;21.80;8.03;;;;;;;35.29;46.12;101036.78;5051326;28;20938;-74
2022/06/13 02:31:02;;;;;;;18.93;8.17;;;;;;;35.45;45.76;101030.19;5051437;28;20418;-74
2022/06/13 02:33:35;;;;;;;13.40;6.60;;;;;;;35.56;45.73;101035.50;5051360;28;20410;-74
2022/06/13 02:36:11;;;;;;;11.70;7.20;;;;;;;35.60;45.60;101031.94;5051372;28;20423;-74
2022/06/13 02:39:00;;;;;;;19.07;8.80;;;;;;;35.55;45.25;101031.19;5051276;28;20422;-74
2022/06/13 02:41:37;;;;;;;15.17;8.33;;;;;;;35.32;45.80;101040.81;5051023;28;20418;-74
2022/06/13 02:44:15;;;;;;;10.93;7.27;;;;;;;35.45;45.72;101042.88;5051172;28;21000;-74
2022/06/13 02:46:56;;;;;;;13.47;7.00;;;;;;;35.70;45.13;101042.63;5051098;28;20426;-75
2022/06/13 02:49:34;;;;;;;15.00;7.87;;;;;;;35.79;44.85;101042.81;5050940;28;20496;-74
2022/06/13 02:52:11;;;;;;;13.97;7.90;;;;;;;35.63;45.46;101041.38;5052848;28;20406;-74
2022/06/13 02:55:00;;;;;;;14.87;8.77;;;;;;;35.50;45.73;101049.03;5050734;28;20504;-74
2022/06/13 02:57:39;;;;;;;18.90;8.77;;;;;;;35.38;45.75;101045.09;5051044;28;20423;-74
2022/06/13 03:00:23;;;;;;;13.90;8.60;;;;;;;35.42;45.88;101049.66;5051088;28;20800;-74
2022/06/13 03:02:52;;;;;;;21.17;9.43;;;;;;;35.04;47.09;101056.69;5050921;28;20445;-74
2022/06/13 03:05:40;;;;;;;17.50;9.50;;;;;;;35.25;46.36;101046.53;5051045;28;20513;-76
2022/06/13 03:08:15;;;;;;;14.67;8.23;;;;;;;35.04;46.54;101048.59;5050961;28;20423;-76
2022/06/13 03:10:56;;;;;;;14.47;7.43;;;;;;;34.87;46.87;101046.28;5051104;28;20441;-76
2022/06/13 03:13:56;;;;;;;10.97;7.23;;;;;;;34.85;46.95;101044.94;5050862;28;20869;-76
2022/06/13 03:16:30;;;;;;;21.67;10.43;;;;;;;34.85;47.00;101047.63;5010794;28;20494;-75
2022/06/13 03:19:02;;;;;;;24.57;8.77;;;;;;;34.95;46.64;101061.88;5052619;28;20806;-74
2022/06/13 03:21:39;;;;;;;18.63;9.77;;;;;;;35.21;46.32;101069.75;5050807;28;20501;-74
2022/06/13 03:24:25;;;;;;;17.07;8.13;;;;;;;35.11;46.77;101062.56;5050675;28;20450;-75
2022/06/13 03:26:59;;;;;;;15.13;9.77;;;;;;;35.17;46.58;101068.72;5050740;28;20422;-76
2022/06/13 03:29:42;;;;;;;20.20;10.40;;;;;;;35.00;46.80;101059.16;5052296;28;20414;-76
2022/06/13 03:32:14;;;;;;;18.60;12.17;;;;;;;35.00;46.82;101064.53;5050644;28;20492;-74
2022/06/13 03:34:47;;;;;;;23.43;12.43;;;;;;;35.00;46.94;101069.13;5050800;28;20435;-74
2022/06/13 03:37:20;;;;;;;19.33;9.33;;;;;;;35.21;46.26;101073.25;5050617;28;20866;-74
2022/06/13 03:40:00;;;;;;;16.40;9.93;;;;;;;35.41;46.38;101082.25;5052393;28;20444;-74
2022/06/13 03:42:40;;;;;;;18.57;10.40;;;;;;;35.33;46.04;101085.56;5050732;28;20441;-74
2022/06/13 03:45:22;;;;;;;19.17;9.73;;;;;;;35.49;46.13;101089.78;5052204;28;20496;-74
2022/06/13 03:48:05;;;;;;;20.70;11.77;;;;;;;35.15;47.11;101092.47;5050579;28;20446;-76
2022/06/13 03:50:34;;;;;;;15.53;10.10;;;;;;;35.10;47.00;101098.69;5050519;28;20423;-76
2022/06/13 03:53:21;;;;;;;17.40;10.77;;;;;;;35.18;46.58;101094.59;5050560;28;20508;-76
2022/06/13 03:56:08;;;;;;;18.00;12.60;;;;;;;35.17;46.80;101114.53;5052009;28;20437;-76
2022/06/13 03:59:19;;;;;;;17.50;12.37;;;;;;;35.35;46.17;101107.66;5050457;28;20462;-76
2022/06/13 04:01:51;;;;;;;18.80;11.77;;;;;;;35.38;46.15;101117.91;5029343;28;20414;-74
2022/06/13 04:04:31;;;;;;;20.07;12.03;;;;;;;35.18;46.18;101118.88;5050444;28;20462;-74
2022/06/13 04:07:00;;;;;;;24.93;12.33;;;;;;;35.39;46.09;101114.13;5052863;28;20438;-74
2022/06/13 04:09:31;;;;;;;17.67;11.90;;;;;;;35.48;45.36;101123.22;5054062;28;20406;-74
2022/06/13 04:12:39;;;;;;;31.07;13.97;;;;;;;35.18;45.93;101119.69;5053786;28;20438;-74
2022/06/13 04:15:25;;;;;;;16.93;11.10;;;;;;;35.18;46.29;101122.38;5026820;28;20418;-76
2022/06/13 04:18:12;;;;;;;22.27;11.67;;;;;;;35.28;46.20;101119.59;5053860;28;20430;-76
2022/06/13 04:21:12;;;;;;;17.63;11.40;;;;;;;35.40;45.76;101121.13;5053788;28;20439;-74
2022/06/13 04:23:54;;;;;;;18.90;10.77;;;;;;;35.48;45.50;101123.22;5053967;28;20552;-74
2022/06/13 04:26:32;;;;;;;24.93;12.23;;;;;;;34.72;46.96;101135.28;5053664;28;20514;-73
2022/06/13 04:29:12;;;;;;;20.83;12.27;;;;;;;34.56;47.63;101131.88;5055284;28;20406;-74
2022/06/13 04:31:39;;;;;;;24.87;11.33;;;;;;;34.89;46.52;101133.03;5053410;28;20422;-74
2022/06/13 04:34:13;;;;;;;34.13;13.00;;;;;;;35.02;46.28;101130.84;5055241;28;20403;-74
2022/06/13 04:36:41;;;;;;;21.27;14.17;;;;;;;34.92;46.13;101132.50;5053348;28;20437;-74
2022/06/13 04:39:11;;;;;;;15.47;12.77;;;;;;;35.07;46.12;101138.91;5053316;28;20969;-75
2022/06/13 04:41:42;;;;;;;19.67;12.23;;;;;;;35.16;45.89;101132.63;5053291;28;20462;-74
2022/06/13 04:44:14;;;;;;;25.70;12.83;;;;;;;35.30;45.82;101138.22;5053227;28;20564;-75
2022/06/13 04:46:42;;;;;;;18.77;13.10;;;;;;;35.27;45.50;101138.75;5053153;28;20457;-74
2022/06/13 04:49:36;;;;;;;21.83;13.63;;;;;;;35.36;45.47;101150.56;5053300;28;20415;-74
2022/06/13 04:52:09;;;;;;;18.60;13.70;;;;;;;35.04;45.65;101155.63;5053121;28;20474;-74
2022/06/13 04:54:47;;;;;;;20.33;12.80;;;;;;;35.17;46.26;101160.38;5053213;28;20417;-74
2022/06/13 04:57:16;;;;;;;24.93;15.67;;;;;;;35.21;45.85;101153.34;5053106;28;20861;-74
2022/06/13 04:59:44;;;;;;;24.60;14.00;;;;;;;34.90;46.36;101158.09;5052932;28;20440;-74
2022/06/13 05:02:13;;;;;;;49.57;18.30;;;;;;;34.77;46.67;101151.44;5053060;28;20418;-75
2022/06/13 05:04:40;;;;;;;34.10;17.00;;;;;;;34.87;46.54;101169.44;5052971;28;20463;-74
2022/06/13 05:07:18;;;;;;;34.27;21.00;;;;;;;34.98;46.23;101162.94;5052761;28;20443;-74
2022/06/13 05:09:54;;;;;;;40.70;23.30;;;;;;;34.98;46.30;101161.03;5053183;28;20497;-74
2022/06/13 05:12:43;;;;;;;34.93;22.40;;;;;;;34.93;46.22;101165.69;5052767;28;20537;-74
2022/06/13 05:15:18;;;;;;;36.43;21.37;;;;;;;35.02;46.39;101169.38;5052485;28;20474;-74
2022/06/13 05:18:18;;;;;;;28.43;19.37;;;;;;;34.97;46.51;101178.31;5052515;28;20861;-74
2022/06/13 05:20:58;;;;;;;30.77;19.60;;;;;;;35.08;46.16;101180.94;5052677;28;20417;-74
2022/06/13 05:23:51;;;;;;;21.47;16.37;;;;;;;35.11;45.93;101186.59;5054036;28;20450;-74
2022/06/13 05:26:17;;;;;;;25.50;14.83;;;;;;;35.17;45.65;101187.34;5052532;28;20421;-74
2022/06/13 05:28:43;;;;;;;28.37;15.93;;;;;;;35.18;45.88;101197.06;5052490;28;20419;-74
2022/06/13 05:31:19;;;;;;;30.27;16.30;;;;;;;35.04;45.90;101196.06;5052440;28;20452;-74
2022/06/13 05:33:47;;;;;;;26.13;15.40;;;;;;;35.03;45.95;101194.44;5052349;28;20467;-75
2022/06/13 05:36:17;;;;;;;27.80;16.17;;;;;;;34.76;46.64;101184.06;5052315;28;20449;-75
2022/06/13 05:38:56;;;;;;;23.97;15.07;;;;;;;34.72;46.72;101181.09;5052251;28;20423;-74
2022/06/13 05:41:22;;;;;;;28.03;16.83;;;;;;;34.88;46.16;101184.53;5052154;28;20414;-75
2022/06/13 05:43:50;;;;;;;23.70;13.80;;;;;;;34.99;45.84;101194.22;5052066;28;21018;-75
2022/06/13 05:46:21;;;;;;;22.80;17.23;;;;;;;34.96;46.10;101184.78;5051547;28;20414;-74
2022/06/13 05:48:50;;;;;;;23.80;14.00;;;;;;;35.10;45.90;101184.16;5037368;28;20920;-73
2022/06/13 05:51:16;;;;;;;27.50;17.23;;;;;;;35.05;46.02;101184.19;5032220;28;20408;-75
2022/06/13 05:56:13;;;;;;;31.20;15.93;;;;;;;34.87;46.11;101191.00;5012325;28;20476;-74
2022/06/13 05:58:39;;;;;;;24.80;14.87;;;;;;;34.69;46.56;101195.94;4995880;28;20423;-76
2022/06/13 06:01:07;;;;;;;15.77;13.20;;;;;;;34.87;45.97;101199.09;4995841;28;20432;-73
2022/06/13 06:03:33;;;;;;;20.20;14.87;;;;;;;34.68;45.94;101188.09;4995559;28;20464;-72
2022/06/13 06:06:01;;;;;;;21.60;15.97;;;;;;;34.77;46.48;101202.63;5013719;28;20471;-75
2022/06/13 06:08:31;;;;;;;25.33;18.50;;;;;;;34.61;46.73;101204.56;4995164;28;20539;-73
2022/06/13 06:10:58;;;;;;;26.97;18.43;;;;;;;34.89;45.61;101205.00;4995123;28;20984;-74
2022/06/13 06:13:26;;;;;;;23.70;16.73;;;;;;;35.16;45.51;101212.72;4994620;28;20420;-76
2022/06/13 06:15:53;;;;;;;28.00;16.73;;;;;;;35.25;44.73;101206.47;4995434;28;20433;-74
2022/06/13 06:18:23;;;;;;;21.20;14.73;;;;;;;35.16;44.51;101212.72;4995186;28;20420;-72
2022/06/13 06:20:49;;;;;;;22.70;14.40;;;;;;;35.22;45.18;101200.81;4976075;28;20560;-74
2022/06/13 06:23:16;;;;;;;20.50;14.73;;;;;;;35.36;44.88;101207.22;4981362;28;20563;-73
2022/06/13 06:25:43;;;;;;;19.67;14.00;;;;;;;34.87;45.44;101210.69;4976677;28;20437;-71
2022/06/13 06:28:19;;;;;;;16.70;11.83;;;;;;;35.03;45.03;101205.25;4976043;28;20800;-73
2022/06/13 06:30:45;;;;;;;22.03;13.53;;;;;;;35.24;45.04;101212.16;4975600;28;20425;-71
2022/06/13 06:33:12;;;;;;;20.97;12.47;;;;;;;35.34;44.78;101216.66;4960393;28;20964;-72
2022/06/13 06:35:39;;;;;;;21.23;14.00;;;;;;;35.45;44.99;101231.72;4995205;28;20423;-77
2022/06/13 06:38:06;;;;;;;22.73;13.23;;;;;;;35.34;44.70;101224.75;4994370;28;20439;-72
2022/06/13 06:40:32;;;;;;;25.03;14.20;;;;;;;35.26;44.57;101228.84;5013064;28;20913;-72
2022/06/13 06:42:58;;;;;;;20.03;15.20;;;;;;;35.13;44.79;101230.25;4993951;28;20804;-72
2022/06/13 06:45:26;;;;;;;16.07;11.47;;;;;;;35.14;45.14;101226.47;4973895;28;20456;-73
2022/06/13 06:47:53;;;;;;;19.80;12.40;;;;;;;35.08;44.90;101232.19;4973809;28;20429;-72
2022/06/13 06:50:25;;;;;;;17.97;12.20;;;;;;;35.25;44.75;101233.44;4990883;28;20402;-72
2022/06/13 06:52:51;;;;;;;18.03;10.97;;;;;;;35.50;43.66;101232.50;4973850;28;20425;-72
2022/06/13 07:00:51;;;;;;;14.77;11.17;;;;;;;35.45;44.52;101246.00;4991570;28;20401;-71
2022/06/13 07:03:18;;;;;;;22.93;14.80;;;;;;;35.72;43.68;101250.13;4973790;28;20456;-73
2022/06/13 07:05:46;;;;;;;24.63;12.40;;;;;;;35.62;43.90;101247.53;4973597;28;20425;-73
2022/06/13 07:08:13;;;;;;;19.63;13.77;;;;;;;35.61;44.05;101252.13;4978899;28;20448;-71
2022/06/13 07:10:40;;;;;;;17.33;12.87;;;;;;;35.83;43.70;101262.47;4979691;28;20945;-71
2022/06/13 07:13:06;;;;;;;19.07;11.87;;;;;;;35.98;43.77;101257.00;4999901;28;20462;-71
2022/06/13 07:15:32;;;;;;;18.67;12.10;;;;;;;35.85;44.09;101251.38;4984210;28;20428;-77
2022/06/13 07:17:58;;;;;;;22.47;11.87;;;;;;;35.92;43.96;101252.72;4983031;28;20923;-76
2022/06/13 07:20:24;;;;;;;21.33;12.93;;;;;;;35.94;44.45;101239.75;4984360;28;20456;-77
2022/06/13 07:22:52;;;;;;;23.40;13.13;;;;;;;36.12;43.37;101250.94;4982268;28;20523;-73
2022/06/13 07:25:23;;;;;;;21.63;14.10;;;;;;;36.15;43.73;101240.34;4984738;28;21035;-76
2022/06/13 07:27:49;;;;;;;22.10;18.37;;;;;;;35.89;44.25;101255.13;4983625;28;20441;-77
2022/06/13 07:30:18;;;;;;;16.47;13.23;;;;;;;35.57;44.88;101256.47;4982788;28;20950;-71
2022/06/13 07:32:45;;;;;;;31.90;17.33;;;;;;;35.76;44.69;101262.78;4980659;28;20504;-70
2022/06/13 07:35:14;;;;;;;17.10;14.23;;;;;;;35.75;44.92;101261.19;5001078;28;20447;-70
2022/06/13 07:40:25;;;;;;;22.27;13.17;;;;;;;35.84;44.72;101263.28;4998590;28;20424;-71
2022/06/13 07:42:55;;;;;;;20.00;12.63;;;;;;;35.92;45.21;101260.03;5002489;28;20409;-70
2022/06/13 07:45:25;;;;;;;19.87;14.40;;;;;;;36.03;45.25;101262.34;5003262;28;20423;-70
2022/06/13 07:47:52;;;;;;;21.17;14.60;;;;;;;36.13;44.39;101258.75;4986404;28;20478;-71
2022/06/13 07:50:21;;;;;;;21.00;13.20;;;;;;;36.18;44.65;101252.50;4993487;28;20436;-72
2022/06/13 07:52:49;;;;;;;14.17;11.60;;;;;;;36.22;44.59;101254.34;4991770;28;20428;-70
2022/06/13 07:55:15;;;;;;;22.27;13.60;;;;;;;36.20;44.87;101255.72;4977190;28;20624;-71
2022/06/13 07:57:42;;;;;;;19.43;12.53;;;;;;;36.27;44.88;101246.19;4967103;28;20434;-71
2022/06/13 08:00:22;;;;;;;16.73;12.03;;;;;;;36.40;44.13;101246.63;4981324;28;20480;-70
2022/06/13 08:02:50;;;;;;;18.07;11.87;;;;;;;36.39;44.78;101250.38;4983075;28;20402;-71
2022/06/13 08:05:16;;;;;;;31.77;13.07;;;;;;;36.29;44.72;101251.31;4966723;28;20457;-70
2022/06/13 08:07:42;;;;;;;21.83;13.53;;;;;;;36.31;44.95;101260.72;4984018;28;20493;-72
2022/06/13 08:10:09;;;;;;;38.67;27.13;;;;;;;35.96;45.34;101255.66;4979344;28;20446;-72
2022/06/13 08:12:35;;;;;;;32.00;17.23;;;;;;;35.95;44.94;101260.25;4983077;28;20424;-69
2022/06/13 08:15:01;;;;;;;28.90;17.03;;;;;;;35.93;45.91;101258.94;4985384;28;20453;-71
2022/06/13 08:17:27;;;;;;;53.40;32.40;;;;;;;35.94;45.90;101261.34;4981534;28;20426;-72
2022/06/13 08:19:53;;;;;;;52.83;30.03;;;;;;;36.31;44.63;101266.13;4981885;28;20447;-70
2022/06/13 08:22:20;;;;;;;22.03;13.33;;;;;;;36.27;44.53;101273.19;4982459;28;20495;-70
2022/06/13 08:24:46;;;;;;;20.70;14.97;;;;;;;36.24;44.91;101270.25;4985014;28;20454;-70
2022/06/13 08:27:12;;;;;;;18.93;11.20;;;;;;;36.08;44.95;101277.69;4981862;28;20942;-70
2022/06/13 08:29:38;;;;;;;26.70;14.83;;;;;;;36.23;45.51;101280.25;4979799;28;20441;-70
2022/06/13 08:32:04;;;;;;;28.57;10.30;;;;;;;36.48;44.77;101281.94;4982787;28;21024;-70
2022/06/13 08:34:31;;;;;;;15.53;10.83;;;;;;;36.66;44.22;101276.91;4984230;28;20468;-70
2022/06/13 08:36:57;;;;;;;20.83;9.87;;;;;;;36.49;44.36;101283.56;4984262;28;20469;-71
2022/06/13 08:39:24;;;;;;;31.53;13.83;;;;;;;36.57;44.75;101288.31;4982951;28;20521;-70
2022/06/13 08:41:58;;;;;;;16.07;8.70;;;;;;;36.43;44.53;101281.19;4981860;28;20881;-73
2022/06/13 08:44:56;;;;;;;15.20;9.20;;;;;;;36.50;44.40;101289.75;4975020;28;20441;-75
2022/06/13 08:47:34;;;;;;;13.50;7.80;;;;;;;36.26;44.85;101289.69;4987874;28;20798;-75
2022/06/13 08:50:31;;;;;;;14.80;9.00;;;;;;;36.30;45.37;101288.03;4993323;28;20425;-75
2022/06/13 08:53:07;;;;;;;17.97;9.50;;;;;;;36.39;44.81;101293.63;4992741;28;20410;-74
2022/06/13 08:55:48;;;;;;;26.97;10.07;;;;;;;36.55;44.40;101295.91;4992600;28;20473;-75
2022/06/13 08:58:29;;;;;;;14.97;9.90;;;;;;;36.21;44.95;101292.44;4993212;28;20479;-76
2022/06/13 09:01:06;;;;;;;15.40;9.70;;;;;;;36.41;44.90;101289.59;4992970;28;20453;-77
2022/06/13 09:03:54;;;;;;;27.33;11.40;;;;;;;36.55;45.19;101290.50;4979906;28;20438;-76
2022/06/13 09:06:36;;;;;;;17.63;10.00;;;;;;;36.55;44.78;101287.81;4973641;28;20438;-83
2022/06/13 09:09:28;;;;;;;15.97;8.53;;;;;;;36.53;44.42;101281.91;4975078;28;20489;-81
2022/06/13 09:11:58;;;;;;;15.13;8.73;;;;;;;36.29;44.79;101299.94;4949725;28;20973;-73
2022/06/13 09:14:47;;;;;;;12.97;8.90;;;;;;;36.54;44.76;101286.19;4987825;28;20462;-76
2022/06/13 09:17:13;;;;;;;17.53;8.70;;;;;;;36.61;44.96;101290.47;4977947;28;20422;-74
2022/06/13 09:19:54;;;;;;;17.50;10.30;;;;;;;36.48;45.17;101291.94;4982210;28;20484;-73
2022/06/13 09:22:36;;;;;;;12.90;9.03;;;;;;;36.59;45.03;101291.56;4980223;28;21029;-73
2022/06/13 09:25:20;;;;;;;19.67;10.93;;;;;;;36.68;44.70;101289.03;4981844;28;20429;-73
2022/06/13 09:28:14;;;;;;;28.90;10.73;;;;;;;36.76;44.74;101292.97;4982862;28;20501;-73
2022/06/13 09:31:07;;;;;;;20.60;9.33;;;;;;;36.71;44.34;101301.16;4979877;28;20450;-74
2022/06/13 09:33:37;;;;;;;14.87;9.40;;;;;;;36.79;44.19;101290.53;4975530;28;20462;-74
2022/06/13 09:36:25;;;;;;;13.13;8.10;;;;;;;36.63;44.87;101285.56;4981651;28;20808;-72
2022/06/13 09:38:59;;;;;;;19.00;9.00;;;;;;;36.86;44.79;101288.28;4982466;28;20421;-73
2022/06/13 09:41:59;;;;;;;16.50;10.33;;;;;;;36.64;44.99;101301.50;4981962;28;20422;-72
2022/06/13 09:44:40;;;;;;;18.53;9.30;;;;;;;36.55;44.69;101290.50;4982743;28;20533;-73
2022/06/13 09:47:30;;;;;;;16.17;10.37;;;;;;;36.47;45.43;101288.44;4981597;28;20480;-76
2022/06/13 09:50:11;;;;;;;22.00;11.60;;;;;;;36.63;44.80;101291.78;4978974;28;20812;-71
2022/06/13 09:53:32;;;;;;;21.57;10.47;;;;;;;36.32;44.75;101288.53;4981327;28;20484;-71
2022/06/13 09:56:08;;;;;;;17.97;8.70;;;;;;;36.64;44.14;101285.28;4889858;29;20470;-79
2022/06/13 09:58:55;;;;;;;21.90;9.53;;;;;;;36.83;44.50;101286.16;4970290;28;20429;-71
2022/06/13 10:02:03;;;;;;;13.97;7.67;;;;;;;36.72;44.09;101287.38;4979909;28;20415;-73
2022/06/13 10:04:32;;;;;;;16.57;7.83;;;;;;;36.90;44.09;101283.13;4981174;28;20436;-70
2022/06/13 10:07:01;;;;;;;15.93;7.60;;;;;;;36.73;44.62;101277.34;4980900;28;21003;-71
2022/06/13 10:09:53;;;;;;;14.00;7.80;;;;;;;36.83;44.40;101274.50;4980529;28;20464;-71
2022/06/13 10:12:19;;;;;;;12.40;7.70;;;;;;;36.69;44.93;101276.31;4978610;28;20429;-72
2022/06/13 10:15:38;;;;;;;19.97;8.77;;;;;;;36.99;44.24;101262.47;4980192;28;20647;-72
2022/06/13 10:18:38;;;;;;;17.20;8.83;;;;;;;36.94;43.85;101259.00;4980454;28;20974;-71
2022/06/13 10:21:34;;;;;;;15.83;8.70;;;;;;;36.79;43.65;101246.47;4980382;28;20419;-71
2022/06/13 10:24:09;;;;;;;14.20;9.10;;;;;;;36.84;44.42;101246.41;4950106;28;20418;-70
2022/06/13 10:27:03;;;;;;;18.87;8.53;;;;;;;36.84;43.94;101257.22;4977128;28;20533;-71
2022/06/13 10:29:47;;;;;;;12.90;7.70;;;;;;;36.84;44.16;101254.53;4977987;28;20813;-71
2022/06/13 10:32:41;;;;;;;12.73;7.63;;;;;;;36.93;44.83;101244.69;4980451;28;20425;-71
2022/06/13 10:35:48;;;;;;;15.47;9.33;;;;;;;36.97;44.03;101247.63;4982772;28;20882;-71
2022/06/13 10:39:00;;;;;;;21.93;10.37;;;;;;;36.91;43.84;101254.19;4992086;28;20437;-71
2022/06/13 10:41:28;;;;;;;16.37;8.73;;;;;;;36.90;43.96;101239.88;4986634;28;20510;-71
2022/06/13 10:43:57;;;;;;;15.50;8.53;;;;;;;37.00;43.99;101241.63;4972652;28;20448;-72
2022/06/13 10:46:23;;;;;;;12.30;8.13;;;;;;;37.00;44.20;101238.91;4972623;28;20461;-72
2022/06/13 10:49:18;;;;;;;16.00;9.23;;;;;;;36.94;43.93;101232.78;4982577;28;20434;-70
2022/06/13 10:51:48;;;;;;;14.23;8.67;;;;;;;36.92;43.99;101234.97;4976726;28;20520;-71
2022/06/13 10:54:21;;;;;;;13.47;7.83;;;;;;;37.02;44.43;101234.03;4994677;28;20488;-71
2022/06/13 10:56:53;;;;;;;20.80;15.67;;;;;;;37.04;43.92;101239.97;4995078;28;20420;-72
2022/06/13 10:59:35;;;;;;;38.57;25.40;;;;;;;37.18;43.78;101226.50;4994951;28;20459;-72
2022/06/13 11:02:05;;;;;;;31.20;17.90;;;;;;;36.98;43.61;101225.69;4995105;28;20519;-72
2022/06/13 11:04:34;;;;;;;32.70;14.70;;;;;;;36.97;43.88;101217.88;5012949;28;20497;-72
2022/06/13 11:07:12;;;;;;;17.33;9.00;;;;;;;36.97;43.49;101209.78;4991358;28;20805;-72
2022/06/13 11:09:41;;;;;;;22.30;8.10;;;;;;;37.02;44.01;101215.91;4975103;28;20464;-72
2022/06/13 11:12:28;;;;;;;13.43;9.30;;;;;;;36.99;43.57;101205.66;4975090;28;20425;-72
2022/06/13 11:23:57;;;;;;;15.37;8.90;;;;;;;37.09;44.21;101202.03;4997088;28;20778;-70
2022/06/13 11:29:18;;;;;;;17.63;9.83;;;;;;;37.29;44.08;101204.44;5006932;28;20448;-71
2022/06/13 11:31:56;;;;;;;15.73;9.20;;;;;;;37.39;43.77;101187.28;4986695;28;20443;-76
2022/06/13 11:34:28;;;;;;;15.00;7.57;;;;;;;37.36;44.08;101193.25;4986276;28;20460;-75
2022/06/13 11:37:13;;;;;;;16.17;8.10;;;;;;;37.29;43.20;101196.31;4984668;28;20564;-76
2022/06/13 11:39:42;;;;;;;16.40;9.20;;;;;;;37.15;44.47;101186.53;4992395;28;20463;-77
2022/06/13 11:42:27;;;;;;;12.20;8.77;;;;;;;37.42;43.94;101180.47;4992501;28;20944;-77
2022/06/13 11:45:06;;;;;;;22.67;10.17;;;;;;;37.43;43.92;101179.34;4979155;28;20464;-77
2022/06/13 11:47:45;;;;;;;18.43;10.37;;;;;;;37.38;44.51;101177.53;4978756;28;20461;-75
2022/06/13 11:50:33;;;;;;;13.90;8.60;;;;;;;37.45;43.36;101179.88;4976511;28;20455;-71
2022/06/13 11:55:55;;;;;;;18.17;9.73;;;;;;;37.65;43.48;101169.53;4995115;28;20464;-73
2022/06/13 11:58:25;;;;;;;19.60;9.43;;;;;;;37.81;43.39;101167.38;4980487;28;20444;-73
2022/06/13 12:01:02;;;;;;;20.60;10.00;;;;;;;37.70;43.76;101165.94;4983054;28;20429;-71
2022/06/13 12:03:29;;;;;;;15.73;9.37;;;;;;;37.58;43.16;101169.09;5006477;28;20900;-71
2022/06/13 12:06:08;;;;;;;19.50;10.00;;;;;;;37.68;43.31;101151.06;4988984;28;20910;-71
2022/06/13 12:08:34;;;;;;;12.03;7.70;;;;;;;37.83;42.91;101153.53;4983814;28;20483;-72
2022/06/13 12:11:19;;;;;;;19.67;12.10;;;;;;;37.76;43.89;101153.91;4976984;28;20421;-71
2022/06/13 12:13:47;;;;;;;14.23;9.47;;;;;;;37.89;43.62;101149.66;4979466;28;20488;-71
2022/06/13 12:16:23;;;;;;;18.93;9.37;;;;;;;37.87;43.29;101143.72;4988711;28;20410;-71
2022/06/13 12:19:20;;;;;;;15.33;7.73;;;;;;;37.82;43.07;101141.13;5003042;28;20423;-72